sensor_id;sensor_type;location;lat;lon;timestamp;P1;durP1;ratioP1;P2;durP2;ratioP2
757;SDS011;363;48.764;9.172;2024-03-22T00:00:11;13.90;;;11.30;;
757;SDS011;363;48.764;9.172;2024-03-22T00:02:37;11.50;;;10.30;;
757;SDS011;363;48.764;9.172;2024-03-22T00:05:03;12.45;;;10.77;;
757;SDS011;363;48.764;9.172;2024-03-22T00:07:29;13.93;;;11.15;;
757;SDS011;363;48.764;9.172;2024-03-22T00:09:55;12.57;;;11.27;;
757;SDS011;363;48.764;9.172;2024-03-22T00:12:21;13.90;;;11.87;;
757;SDS011;363;48.764;9.172;2024-03-22T00:14:47;11.52;;;10.43;;
757;SDS011;363;48.764;9.172;2024-03-22T00:17:13;13.57;;;11.17;;
757;SDS011;363;48.764;9.172;2024-03-22T00:19:40;14.50;;;11.57;;
757;SDS011;363;48.764;9.172;2024-03-22T00:22:05;15.40;;;10.93;;
757;SDS011;363;48.764;9.172;2024-03-22T00:24:36;13.13;;;11.68;;
757;SDS011;363;48.764;9.172;2024-03-22T00:27:01;12.43;;;11.10;;
757;SDS011;363;48.764;9.172;2024-03-22T00:29:27;11.67;;;10.57;;
757;SDS011;363;48.764;9.172;2024-03-22T00:31:52;11.40;;;9.57;;
757;SDS011;363;48.764;9.172;2024-03-22T00:34:18;11.47;;;10.27;;
757;SDS011;363;48.764;9.172;2024-03-22T00:36:44;14.55;;;10.65;;
757;SDS011;363;48.764;9.172;2024-03-22T00:39:10;12.80;;;11.50;;
757;SDS011;363;48.764;9.172;2024-03-22T00:41:37;11.90;;;10.68;;
757;SDS011;363;48.764;9.172;2024-03-22T00:44:04;13.07;;;11.65;;
757;SDS011;363;48.764;9.172;2024-03-22T00:46:30;12.45;;;11.10;;
757;SDS011;363;48.764;9.172;2024-03-22T00:48:56;14.38;;;12.32;;
757;SDS011;363;48.764;9.172;2024-03-22T00:51:25;13.07;;;11.45;;
757;SDS011;363;48.764;9.172;2024-03-22T00:53:51;15.77;;;12.32;;
757;SDS011;363;48.764;9.172;2024-03-22T00:56:16;12.57;;;10.47;;
757;SDS011;363;48.764;9.172;2024-03-22T00:58:42;13.73;;;10.40;;
757;SDS011;363;48.764;9.172;2024-03-22T01:01:09;11.63;;;10.43;;
757;SDS011;363;48.764;9.172;2024-03-22T01:03:35;12.87;;;10.70;;
757;SDS011;363;48.764;9.172;2024-03-22T01:06:03;11.20;;;9.57;;
757;SDS011;363;48.764;9.172;2024-03-22T01:08:29;11.32;;;10.18;;
757;SDS011;363;48.764;9.172;2024-03-22T01:10:58;11.33;;;10.13;;
757;SDS011;363;48.764;9.172;2024-03-22T01:13:26;11.75;;;10.43;;
757;SDS011;363;48.764;9.172;2024-03-22T01:15:51;11.20;;;10.00;;
757;SDS011;363;48.764;9.172;2024-03-22T01:18:17;14.75;;;9.95;;
757;SDS011;363;48.764;9.172;2024-03-22T01:20:44;11.73;;;9.90;;
757;SDS011;363;48.764;9.172;2024-03-22T01:23:12;11.73;;;10.52;;
757;SDS011;363;48.764;9.172;2024-03-22T01:25:38;11.13;;;9.93;;
757;SDS011;363;48.764;9.172;2024-03-22T01:28:05;11.85;;;10.25;;
757;SDS011;363;48.764;9.172;2024-03-22T01:30:30;13.40;;;10.20;;
757;SDS011;363;48.764;9.172;2024-03-22T01:32:58;11.45;;;9.48;;
757;SDS011;363;48.764;9.172;2024-03-22T01:35:24;13.83;;;10.50;;
757;SDS011;363;48.764;9.172;2024-03-22T01:37:50;11.48;;;10.30;;
757;SDS011;363;48.764;9.172;2024-03-22T01:40:16;11.57;;;10.37;;
757;SDS011;363;48.764;9.172;2024-03-22T01:42:41;12.43;;;10.23;;
757;SDS011;363;48.764;9.172;2024-03-22T01:45:10;10.65;;;9.55;;
757;SDS011;363;48.764;9.172;2024-03-22T01:47:38;12.75;;;10.57;;
757;SDS011;363;48.764;9.172;2024-03-22T01:50:04;12.70;;;10.07;;
757;SDS011;363;48.764;9.172;2024-03-22T01:52:34;11.95;;;10.40;;
757;SDS011;363;48.764;9.172;2024-03-22T01:55:01;17.88;;;9.65;;
757;SDS011;363;48.764;9.172;2024-03-22T01:57:31;12.95;;;10.73;;
757;SDS011;363;48.764;9.172;2024-03-22T01:59:58;11.20;;;9.82;;
757;SDS011;363;48.764;9.172;2024-03-22T02:02:24;13.10;;;11.00;;
757;SDS011;363;48.764;9.172;2024-03-22T02:04:50;11.13;;;9.93;;
757;SDS011;363;48.764;9.172;2024-03-22T02:07:21;11.38;;;10.13;;
757;SDS011;363;48.764;9.172;2024-03-22T02:09:47;12.13;;;10.10;;
757;SDS011;363;48.764;9.172;2024-03-22T02:12:14;12.25;;;10.40;;
757;SDS011;363;48.764;9.172;2024-03-22T02:14:41;12.35;;;10.52;;
757;SDS011;363;48.764;9.172;2024-03-22T02:17:06;12.60;;;10.10;;
757;SDS011;363;48.764;9.172;2024-03-22T02:19:32;13.77;;;10.50;;
757;SDS011;363;48.764;9.172;2024-03-22T02:21:58;10.93;;;9.00;;
757;SDS011;363;48.764;9.172;2024-03-22T02:24:23;12.30;;;9.93;;
757;SDS011;363;48.764;9.172;2024-03-22T02:26:49;11.73;;;10.53;;
757;SDS011;363;48.764;9.172;2024-03-22T02:29:14;13.90;;;10.87;;
757;SDS011;363;48.764;9.172;2024-03-22T02:31:41;21.48;;;10.88;;
757;SDS011;363;48.764;9.172;2024-03-22T02:34:07;14.05;;;10.77;;
757;SDS011;363;48.764;9.172;2024-03-22T02:36:33;12.43;;;10.70;;
757;SDS011;363;48.764;9.172;2024-03-22T02:38:59;11.23;;;9.50;;
757;SDS011;363;48.764;9.172;2024-03-22T02:41:26;12.30;;;11.00;;
757;SDS011;363;48.764;9.172;2024-03-22T02:43:52;17.30;;;10.90;;
757;SDS011;363;48.764;9.172;2024-03-22T02:46:18;14.50;;;10.13;;
757;SDS011;363;48.764;9.172;2024-03-22T02:48:44;11.60;;;10.40;;
757;SDS011;363;48.764;9.172;2024-03-22T02:51:10;13.90;;;9.93;;
757;SDS011;363;48.764;9.172;2024-03-22T02:53:35;16.47;;;11.07;;
757;SDS011;363;48.764;9.172;2024-03-22T02:56:01;13.07;;;11.67;;
757;SDS011;363;48.764;9.172;2024-03-22T02:58:27;12.20;;;9.70;;
757;SDS011;363;48.764;9.172;2024-03-22T03:00:52;13.20;;;10.73;;
757;SDS011;363;48.764;9.172;2024-03-22T03:03:18;10.70;;;9.60;;
757;SDS011;363;48.764;9.172;2024-03-22T03:05:44;11.00;;;9.73;;
757;SDS011;363;48.764;9.172;2024-03-22T03:08:10;14.45;;;10.65;;
757;SDS011;363;48.764;9.172;2024-03-22T03:10:35;12.33;;;11.03;;
757;SDS011;363;48.764;9.172;2024-03-22T03:13:01;12.55;;;10.73;;
757;SDS011;363;48.764;9.172;2024-03-22T03:15:28;13.68;;;11.80;;
757;SDS011;363;48.764;9.172;2024-03-22T03:17:54;13.55;;;12.20;;
757;SDS011;363;48.764;9.172;2024-03-22T03:20:20;10.90;;;9.80;;
757;SDS011;363;48.764;9.172;2024-03-22T03:22:46;12.27;;;10.60;;
757;SDS011;363;48.764;9.172;2024-03-22T03:25:11;14.70;;;11.00;;
757;SDS011;363;48.764;9.172;2024-03-22T03:27:38;12.48;;;10.32;;
757;SDS011;363;48.764;9.172;2024-03-22T03:30:04;12.07;;;9.85;;
757;SDS011;363;48.764;9.172;2024-03-22T03:32:30;12.02;;;10.45;;
757;SDS011;363;48.764;9.172;2024-03-22T03:34:56;11.83;;;10.30;;
757;SDS011;363;48.764;9.172;2024-03-22T03:37:22;12.00;;;10.30;;
757;SDS011;363;48.764;9.172;2024-03-22T03:39:47;12.03;;;10.77;;
757;SDS011;363;48.764;9.172;2024-03-22T03:42:13;11.30;;;10.10;;
757;SDS011;363;48.764;9.172;2024-03-22T03:44:39;11.93;;;10.70;;
757;SDS011;363;48.764;9.172;2024-03-22T03:47:06;14.85;;;10.75;;
757;SDS011;363;48.764;9.172;2024-03-22T03:49:31;15.30;;;11.17;;
757;SDS011;363;48.764;9.172;2024-03-22T03:51:57;11.77;;;10.30;;
757;SDS011;363;48.764;9.172;2024-03-22T03:54:24;14.23;;;10.52;;
757;SDS011;363;48.764;9.172;2024-03-22T03:56:49;11.63;;;10.53;;
757;SDS011;363;48.764;9.172;2024-03-22T03:59:15;17.63;;;10.90;;
757;SDS011;363;48.764;9.172;2024-03-22T04:01:41;10.93;;;9.75;;
757;SDS011;363;48.764;9.172;2024-03-22T04:04:06;12.83;;;10.87;;
757;SDS011;363;48.764;9.172;2024-03-22T04:06:34;12.30;;;9.98;;
757;SDS011;363;48.764;9.172;2024-03-22T04:08:59;11.87;;;10.20;;
757;SDS011;363;48.764;9.172;2024-03-22T04:11:25;11.70;;;9.88;;
757;SDS011;363;48.764;9.172;2024-03-22T04:13:51;13.10;;;9.77;;
757;SDS011;363;48.764;9.172;2024-03-22T04:16:16;11.63;;;10.43;;
757;SDS011;363;48.764;9.172;2024-03-22T04:18:44;11.98;;;9.70;;
757;SDS011;363;48.764;9.172;2024-03-22T04:21:09;11.60;;;10.40;;
757;SDS011;363;48.764;9.172;2024-03-22T04:23:35;11.33;;;10.23;;
757;SDS011;363;48.764;9.172;2024-03-22T04:26:01;13.00;;;10.10;;
757;SDS011;363;48.764;9.172;2024-03-22T04:28:28;12.57;;;11.23;;
757;SDS011;363;48.764;9.172;2024-03-22T04:30:58;12.27;;;10.35;;
757;SDS011;363;48.764;9.172;2024-03-22T04:33:25;11.75;;;10.25;;
757;SDS011;363;48.764;9.172;2024-03-22T04:35:51;10.80;;;9.07;;
757;SDS011;363;48.764;9.172;2024-03-22T04:38:17;13.38;;;10.52;;
757;SDS011;363;48.764;9.172;2024-03-22T04:40:43;12.00;;;9.40;;
757;SDS011;363;48.764;9.172;2024-03-22T04:43:08;13.43;;;11.23;;
757;SDS011;363;48.764;9.172;2024-03-22T04:45:34;10.98;;;9.82;;
757;SDS011;363;48.764;9.172;2024-03-22T04:48:03;11.67;;;9.33;;
757;SDS011;363;48.764;9.172;2024-03-22T04:50:30;13.40;;;10.30;;
757;SDS011;363;48.764;9.172;2024-03-22T04:52:56;10.18;;;9.27;;
757;SDS011;363;48.764;9.172;2024-03-22T04:55:22;10.03;;;9.03;;
757;SDS011;363;48.764;9.172;2024-03-22T04:57:47;9.93;;;9.00;;
757;SDS011;363;48.764;9.172;2024-03-22T05:00:13;14.43;;;10.00;;
757;SDS011;363;48.764;9.172;2024-03-22T05:02:40;10.52;;;9.50;;
757;SDS011;363;48.764;9.172;2024-03-22T05:05:06;12.40;;;9.35;;
757;SDS011;363;48.764;9.172;2024-03-22T05:07:33;11.30;;;10.05;;
757;SDS011;363;48.764;9.172;2024-03-22T05:09:59;11.70;;;10.25;;
757;SDS011;363;48.764;9.172;2024-03-22T05:12:24;12.30;;;9.40;;
757;SDS011;363;48.764;9.172;2024-03-22T05:14:50;11.50;;;8.30;;
757;SDS011;363;48.764;9.172;2024-03-22T05:17:15;15.23;;;9.37;;
757;SDS011;363;48.764;9.172;2024-03-22T05:19:41;9.53;;;8.17;;
757;SDS011;363;48.764;9.172;2024-03-22T05:22:07;9.80;;;8.30;;
757;SDS011;363;48.764;9.172;2024-03-22T05:24:33;9.47;;;8.50;;
757;SDS011;363;48.764;9.172;2024-03-22T05:26:59;11.37;;;8.47;;
757;SDS011;363;48.764;9.172;2024-03-22T05:29:25;9.88;;;8.13;;
757;SDS011;363;48.764;9.172;2024-03-22T05:31:50;10.30;;;9.30;;
757;SDS011;363;48.764;9.172;2024-03-22T05:34:17;13.80;;;9.50;;
757;SDS011;363;48.764;9.172;2024-03-22T05:36:43;10.43;;;8.90;;
757;SDS011;363;48.764;9.172;2024-03-22T05:39:09;10.50;;;8.60;;
757;SDS011;363;48.764;9.172;2024-03-22T05:41:37;10.07;;;8.93;;
757;SDS011;363;48.764;9.172;2024-03-22T05:44:03;10.40;;;8.35;;
757;SDS011;363;48.764;9.172;2024-03-22T05:46:29;8.85;;;7.80;;
757;SDS011;363;48.764;9.172;2024-03-22T05:48:56;10.20;;;8.18;;
757;SDS011;363;48.764;9.172;2024-03-22T05:51:23;9.23;;;8.27;;
757;SDS011;363;48.764;9.172;2024-03-22T05:53:49;10.00;;;8.73;;
757;SDS011;363;48.764;9.172;2024-03-22T05:56:15;10.43;;;8.53;;
757;SDS011;363;48.764;9.172;2024-03-22T05:58:41;9.65;;;8.65;;
757;SDS011;363;48.764;9.172;2024-03-22T06:01:07;9.57;;;7.90;;
757;SDS011;363;48.764;9.172;2024-03-22T06:03:33;8.53;;;7.60;;
757;SDS011;363;48.764;9.172;2024-03-22T06:05:59;12.47;;;8.60;;
757;SDS011;363;48.764;9.172;2024-03-22T06:08:28;9.95;;;8.35;;
757;SDS011;363;48.764;9.172;2024-03-22T06:10:56;9.57;;;8.57;;
757;SDS011;363;48.764;9.172;2024-03-22T06:13:22;9.30;;;8.27;;
757;SDS011;363;48.764;9.172;2024-03-22T06:15:48;10.80;;;8.43;;
757;SDS011;363;48.764;9.172;2024-03-22T06:18:15;11.38;;;8.45;;
757;SDS011;363;48.764;9.172;2024-03-22T06:20:41;11.73;;;8.85;;
757;SDS011;363;48.764;9.172;2024-03-22T06:23:08;10.02;;;8.10;;
757;SDS011;363;48.764;9.172;2024-03-22T06:25:34;9.27;;;8.30;;
757;SDS011;363;48.764;9.172;2024-03-22T06:28:00;9.97;;;8.57;;
757;SDS011;363;48.764;9.172;2024-03-22T06:30:26;9.50;;;8.50;;
757;SDS011;363;48.764;9.172;2024-03-22T06:32:54;9.25;;;8.35;;
757;SDS011;363;48.764;9.172;2024-03-22T06:35:20;11.50;;;8.50;;
757;SDS011;363;48.764;9.172;2024-03-22T06:37:47;10.30;;;8.27;;
757;SDS011;363;48.764;9.172;2024-03-22T06:40:13;10.32;;;9.32;;
757;SDS011;363;48.764;9.172;2024-03-22T06:42:40;10.98;;;9.07;;
757;SDS011;363;48.764;9.172;2024-03-22T06:45:06;9.55;;;8.45;;
757;SDS011;363;48.764;9.172;2024-03-22T06:47:32;9.77;;;8.77;;
757;SDS011;363;48.764;9.172;2024-03-22T06:49:57;9.87;;;8.87;;
757;SDS011;363;48.764;9.172;2024-03-22T06:52:23;10.60;;;9.10;;
757;SDS011;363;48.764;9.172;2024-03-22T06:54:49;9.07;;;8.20;;
757;SDS011;363;48.764;9.172;2024-03-22T06:57:15;8.80;;;7.50;;
757;SDS011;363;48.764;9.172;2024-03-22T06:59:45;9.40;;;8.50;;
757;SDS011;363;48.764;9.172;2024-03-22T07:02:39;10.75;;;8.48;;
757;SDS011;363;48.764;9.172;2024-03-22T07:05:10;9.30;;;8.00;;
757;SDS011;363;48.764;9.172;2024-03-22T07:07:39;8.15;;;7.20;;
757;SDS011;363;48.764;9.172;2024-03-22T07:10:05;9.80;;;7.10;;
757;SDS011;363;48.764;9.172;2024-03-22T07:12:31;8.43;;;7.57;;
757;SDS011;363;48.764;9.172;2024-03-22T07:14:58;8.20;;;6.72;;
757;SDS011;363;48.764;9.172;2024-03-22T07:17:24;8.85;;;7.50;;
757;SDS011;363;48.764;9.172;2024-03-22T07:19:51;9.13;;;7.80;;
757;SDS011;363;48.764;9.172;2024-03-22T07:22:16;9.15;;;8.02;;
757;SDS011;363;48.764;9.172;2024-03-22T07:24:52;7.93;;;6.35;;
757;SDS011;363;48.764;9.172;2024-03-22T07:27:17;8.55;;;7.65;;
757;SDS011;363;48.764;9.172;2024-03-22T07:29:46;8.70;;;7.57;;
757;SDS011;363;48.764;9.172;2024-03-22T07:32:14;8.15;;;7.45;;
757;SDS011;363;48.764;9.172;2024-03-22T07:34:40;8.70;;;7.90;;
757;SDS011;363;48.764;9.172;2024-03-22T07:37:08;9.83;;;8.53;;
757;SDS011;363;48.764;9.172;2024-03-22T07:39:38;9.93;;;8.23;;
757;SDS011;363;48.764;9.172;2024-03-22T07:42:06;9.57;;;8.67;;
757;SDS011;363;48.764;9.172;2024-03-22T07:44:32;14.07;;;8.50;;
757;SDS011;363;48.764;9.172;2024-03-22T07:46:58;11.43;;;8.80;;
757;SDS011;363;48.764;9.172;2024-03-22T07:50:01;8.67;;;7.97;;
757;SDS011;363;48.764;9.172;2024-03-22T07:52:30;9.53;;;8.50;;
757;SDS011;363;48.764;9.172;2024-03-22T07:55:36;7.47;;;6.77;;
757;SDS011;363;48.764;9.172;2024-03-22T07:58:45;7.90;;;7.10;;
757;SDS011;363;48.764;9.172;2024-03-22T08:32:13;7.50;;;6.00;;
757;SDS011;363;48.764;9.172;2024-03-22T08:34:38;7.80;;;6.30;;
757;SDS011;363;48.764;9.172;2024-03-22T08:37:04;5.50;;;5.00;;
757;SDS011;363;48.764;9.172;2024-03-22T08:39:32;7.33;;;6.63;;
757;SDS011;363;48.764;9.172;2024-03-22T08:41:58;6.97;;;6.27;;
757;SDS011;363;48.764;9.172;2024-03-22T08:44:23;6.67;;;6.07;;
757;SDS011;363;48.764;9.172;2024-03-22T08:46:49;6.50;;;5.90;;
757;SDS011;363;48.764;9.172;2024-03-22T08:49:15;6.47;;;5.47;;
757;SDS011;363;48.764;9.172;2024-03-22T08:51:40;6.63;;;6.00;;
757;SDS011;363;48.764;9.172;2024-03-22T08:54:06;5.93;;;5.43;;
757;SDS011;363;48.764;9.172;2024-03-22T08:56:32;5.80;;;5.20;;
757;SDS011;363;48.764;9.172;2024-03-22T08:58:59;6.27;;;5.43;;
757;SDS011;363;48.764;9.172;2024-03-22T09:01:25;6.10;;;5.23;;
757;SDS011;363;48.764;9.172;2024-03-22T09:03:51;6.67;;;6.03;;
757;SDS011;363;48.764;9.172;2024-03-22T09:06:17;6.03;;;4.93;;
757;SDS011;363;48.764;9.172;2024-03-22T09:08:44;7.40;;;6.03;;
757;SDS011;363;48.764;9.172;2024-03-22T09:11:10;7.97;;;6.10;;
757;SDS011;363;48.764;9.172;2024-03-22T09:13:37;5.63;;;5.00;;
757;SDS011;363;48.764;9.172;2024-03-22T09:16:03;5.77;;;5.17;;
757;SDS011;363;48.764;9.172;2024-03-22T09:18:29;5.27;;;4.73;;
757;SDS011;363;48.764;9.172;2024-03-22T09:21:01;5.37;;;4.87;;
757;SDS011;363;48.764;9.172;2024-03-22T09:56:00;5.60;;;5.10;;
757;SDS011;363;48.764;9.172;2024-03-22T11:52:41;3.97;;;3.50;;
757;SDS011;363;48.764;9.172;2024-03-22T12:05:54;7.03;;;5.20;;
757;SDS011;363;48.764;9.172;2024-03-22T12:08:20;4.40;;;4.00;;
757;SDS011;363;48.764;9.172;2024-03-22T12:10:45;5.60;;;4.37;;
757;SDS011;363;48.764;9.172;2024-03-22T12:13:11;3.90;;;3.60;;
757;SDS011;363;48.764;9.172;2024-03-22T12:15:36;3.60;;;3.23;;
757;SDS011;363;48.764;9.172;2024-03-22T12:18:02;6.63;;;4.20;;
757;SDS011;363;48.764;9.172;2024-03-22T12:20:28;3.63;;;3.20;;
757;SDS011;363;48.764;9.172;2024-03-22T12:22:53;2.60;;;2.30;;
757;SDS011;363;48.764;9.172;2024-03-22T12:25:19;4.00;;;3.17;;
757;SDS011;363;48.764;9.172;2024-03-22T12:27:46;4.30;;;3.90;;
757;SDS011;363;48.764;9.172;2024-03-22T12:30:12;3.20;;;2.83;;
757;SDS011;363;48.764;9.172;2024-03-22T12:32:37;5.23;;;2.87;;
757;SDS011;363;48.764;9.172;2024-03-22T12:35:03;2.90;;;2.57;;
757;SDS011;363;48.764;9.172;2024-03-22T12:37:29;2.40;;;2.20;;
757;SDS011;363;48.764;9.172;2024-03-22T12:39:55;3.30;;;2.60;;
757;SDS011;363;48.764;9.172;2024-03-22T12:42:20;2.30;;;2.00;;
757;SDS011;363;48.764;9.172;2024-03-22T12:44:46;2.80;;;2.60;;
757;SDS011;363;48.764;9.172;2024-03-22T12:47:12;4.13;;;2.40;;
757;SDS011;363;48.764;9.172;2024-03-22T12:49:37;2.77;;;2.53;;
757;SDS011;363;48.764;9.172;2024-03-22T12:52:03;4.23;;;3.30;;
757;SDS011;363;48.764;9.172;2024-03-22T12:54:29;2.97;;;2.77;;
757;SDS011;363;48.764;9.172;2024-03-22T12:56:54;2.80;;;2.47;;
757;SDS011;363;48.764;9.172;2024-03-22T12:59:20;3.80;;;2.80;;
757;SDS011;363;48.764;9.172;2024-03-22T13:01:48;2.93;;;2.50;;
757;SDS011;363;48.764;9.172;2024-03-22T13:04:14;3.30;;;2.87;;
757;SDS011;363;48.764;9.172;2024-03-22T13:06:40;2.70;;;2.50;;
757;SDS011;363;48.764;9.172;2024-03-22T13:09:05;2.63;;;2.43;;
757;SDS011;363;48.764;9.172;2024-03-22T13:11:34;2.67;;;2.20;;
757;SDS011;363;48.764;9.172;2024-03-22T13:14:00;3.10;;;2.03;;
757;SDS011;363;48.764;9.172;2024-03-22T13:16:25;2.87;;;2.67;;
757;SDS011;363;48.764;9.172;2024-03-22T13:18:51;4.20;;;3.30;;
757;SDS011;363;48.764;9.172;2024-03-22T13:21:17;5.03;;;3.57;;
757;SDS011;363;48.764;9.172;2024-03-22T13:23:42;3.30;;;3.00;;
757;SDS011;363;48.764;9.172;2024-03-22T13:26:08;3.83;;;2.93;;
757;SDS011;363;48.764;9.172;2024-03-22T13:28:38;3.77;;;3.00;;
757;SDS011;363;48.764;9.172;2024-03-22T13:31:05;5.57;;;3.80;;
757;SDS011;363;48.764;9.172;2024-03-22T13:33:33;4.97;;;4.27;;
757;SDS011;363;48.764;9.172;2024-03-22T13:35:59;4.77;;;3.87;;
757;SDS011;363;48.764;9.172;2024-03-22T13:38:26;3.50;;;3.20;;
757;SDS011;363;48.764;9.172;2024-03-22T13:40:55;4.70;;;3.60;;
757;SDS011;363;48.764;9.172;2024-03-22T13:43:21;7.23;;;3.83;;
757;SDS011;363;48.764;9.172;2024-03-22T13:45:48;3.17;;;2.93;;
757;SDS011;363;48.764;9.172;2024-03-22T13:48:18;4.20;;;3.53;;
757;SDS011;363;48.764;9.172;2024-03-22T13:50:45;3.27;;;2.90;;
757;SDS011;363;48.764;9.172;2024-03-22T13:53:11;3.20;;;3.00;;
757;SDS011;363;48.764;9.172;2024-03-22T13:55:37;3.37;;;3.03;;
757;SDS011;363;48.764;9.172;2024-03-22T13:58:02;3.43;;;3.13;;
757;SDS011;363;48.764;9.172;2024-03-22T14:00:28;3.20;;;2.90;;
757;SDS011;363;48.764;9.172;2024-03-22T14:02:54;3.13;;;2.90;;
757;SDS011;363;48.764;9.172;2024-03-22T14:05:21;4.43;;;4.03;;
757;SDS011;363;48.764;9.172;2024-03-22T14:07:49;3.60;;;3.30;;
757;SDS011;363;48.764;9.172;2024-03-22T14:10:14;3.57;;;3.27;;
757;SDS011;363;48.764;9.172;2024-03-22T14:12:41;4.13;;;3.73;;
757;SDS011;363;48.764;9.172;2024-03-22T14:15:07;4.37;;;3.70;;
757;SDS011;363;48.764;9.172;2024-03-22T14:17:33;3.40;;;3.10;;
757;SDS011;363;48.764;9.172;2024-03-22T14:19:58;5.07;;;3.80;;
757;SDS011;363;48.764;9.172;2024-03-22T14:22:24;4.93;;;4.53;;
757;SDS011;363;48.764;9.172;2024-03-22T14:24:50;6.70;;;3.77;;
757;SDS011;363;48.764;9.172;2024-03-22T14:27:15;4.63;;;3.80;;
757;SDS011;363;48.764;9.172;2024-03-22T14:29:41;9.20;;;5.13;;
757;SDS011;363;48.764;9.172;2024-03-22T14:32:06;5.30;;;4.20;;
757;SDS011;363;48.764;9.172;2024-03-22T14:34:32;5.10;;;4.10;;
757;SDS011;363;48.764;9.172;2024-03-22T14:36:58;4.77;;;4.30;;
757;SDS011;363;48.764;9.172;2024-03-22T14:39:23;5.27;;;4.77;;
757;SDS011;363;48.764;9.172;2024-03-22T14:41:49;5.20;;;3.50;;
757;SDS011;363;48.764;9.172;2024-03-22T14:44:14;3.90;;;3.10;;
757;SDS011;363;48.764;9.172;2024-03-22T14:46:40;3.90;;;3.50;;
757;SDS011;363;48.764;9.172;2024-03-22T14:49:05;4.50;;;2.50;;
757;SDS011;363;48.764;9.172;2024-03-22T14:51:31;3.57;;;3.07;;
757;SDS011;363;48.764;9.172;2024-03-22T14:53:56;3.70;;;3.17;;
757;SDS011;363;48.764;9.172;2024-03-22T14:56:22;3.10;;;2.80;;
757;SDS011;363;48.764;9.172;2024-03-22T14:58:49;3.83;;;2.20;;
757;SDS011;363;48.764;9.172;2024-03-22T15:01:15;2.40;;;2.20;;
757;SDS011;363;48.764;9.172;2024-03-22T15:03:40;4.73;;;2.53;;
757;SDS011;363;48.764;9.172;2024-03-22T15:06:06;1.90;;;1.60;;
757;SDS011;363;48.764;9.172;2024-03-22T15:08:31;2.83;;;2.17;;
757;SDS011;363;48.764;9.172;2024-03-22T15:10:57;4.47;;;2.57;;
757;SDS011;363;48.764;9.172;2024-03-22T15:13:23;2.33;;;2.13;;
757;SDS011;363;48.764;9.172;2024-03-22T15:15:55;3.90;;;2.50;;
757;SDS011;363;48.764;9.172;2024-03-22T15:18:22;3.28;;;2.67;;
757;SDS011;363;48.764;9.172;2024-03-22T15:20:47;3.20;;;2.53;;
757;SDS011;363;48.764;9.172;2024-03-22T15:23:14;2.30;;;2.10;;
757;SDS011;363;48.764;9.172;2024-03-22T15:25:41;7.05;;;2.55;;
757;SDS011;363;48.764;9.172;2024-03-22T15:28:07;4.60;;;2.45;;
757;SDS011;363;48.764;9.172;2024-03-22T15:30:32;2.47;;;2.27;;
757;SDS011;363;48.764;9.172;2024-03-22T15:33:01;3.15;;;1.85;;
757;SDS011;363;48.764;9.172;2024-03-22T15:35:28;3.33;;;3.03;;
757;SDS011;363;48.764;9.172;2024-03-22T15:37:55;2.80;;;2.55;;
757;SDS011;363;48.764;9.172;2024-03-22T15:40:39;2.00;;;1.90;;
757;SDS011;363;48.764;9.172;2024-03-22T15:43:04;3.47;;;1.90;;
757;SDS011;363;48.764;9.172;2024-03-22T15:45:33;2.90;;;2.63;;
757;SDS011;363;48.764;9.172;2024-03-22T15:48:01;3.42;;;2.25;;
757;SDS011;363;48.764;9.172;2024-03-22T15:50:28;2.60;;;2.40;;
757;SDS011;363;48.764;9.172;2024-03-22T15:52:54;3.10;;;2.60;;
757;SDS011;363;48.764;9.172;2024-03-22T15:55:19;4.60;;;2.30;;
757;SDS011;363;48.764;9.172;2024-03-22T15:57:48;4.10;;;2.90;;
757;SDS011;363;48.764;9.172;2024-03-22T16:00:14;4.68;;;2.53;;
757;SDS011;363;48.764;9.172;2024-03-22T16:02:42;6.55;;;3.50;;
757;SDS011;363;48.764;9.172;2024-03-22T16:05:08;4.93;;;2.30;;
757;SDS011;363;48.764;9.172;2024-03-22T16:07:34;2.30;;;2.10;;
757;SDS011;363;48.764;9.172;2024-03-22T16:10:00;2.70;;;2.50;;
757;SDS011;363;48.764;9.172;2024-03-22T16:12:27;3.60;;;2.40;;
757;SDS011;363;48.764;9.172;2024-03-22T16:14:56;2.57;;;2.37;;
757;SDS011;363;48.764;9.172;2024-03-22T16:17:21;3.95;;;2.60;;
757;SDS011;363;48.764;9.172;2024-03-22T16:19:47;3.73;;;2.73;;
757;SDS011;363;48.764;9.172;2024-03-22T16:22:12;2.50;;;2.23;;
757;SDS011;363;48.764;9.172;2024-03-22T16:24:38;2.57;;;2.37;;
757;SDS011;363;48.764;9.172;2024-03-22T16:27:03;3.70;;;2.57;;
757;SDS011;363;48.764;9.172;2024-03-22T16:29:29;3.10;;;2.90;;
757;SDS011;363;48.764;9.172;2024-03-22T16:31:55;3.00;;;2.80;;
757;SDS011;363;48.764;9.172;2024-03-22T16:34:20;3.83;;;3.53;;
757;SDS011;363;48.764;9.172;2024-03-22T16:36:46;6.57;;;5.90;;
757;SDS011;363;48.764;9.172;2024-03-22T16:39:12;5.10;;;4.60;;
757;SDS011;363;48.764;9.172;2024-03-22T16:41:37;5.23;;;4.73;;
757;SDS011;363;48.764;9.172;2024-03-22T16:44:03;5.20;;;3.50;;
757;SDS011;363;48.764;9.172;2024-03-22T16:46:29;3.13;;;2.83;;
757;SDS011;363;48.764;9.172;2024-03-22T16:48:54;2.83;;;2.53;;
757;SDS011;363;48.764;9.172;2024-03-22T16:51:20;7.03;;;2.80;;
757;SDS011;363;48.764;9.172;2024-03-22T16:53:46;7.23;;;3.00;;
757;SDS011;363;48.764;9.172;2024-03-22T16:56:11;3.20;;;2.90;;
757;SDS011;363;48.764;9.172;2024-03-22T16:58:37;4.80;;;3.13;;
757;SDS011;363;48.764;9.172;2024-03-22T17:01:03;3.30;;;3.00;;
757;SDS011;363;48.764;9.172;2024-03-22T17:03:33;3.50;;;3.20;;
757;SDS011;363;48.764;9.172;2024-03-22T17:06:03;3.15;;;2.95;;
757;SDS011;363;48.764;9.172;2024-03-22T17:08:29;3.90;;;3.00;;
757;SDS011;363;48.764;9.172;2024-03-22T17:10:56;6.07;;;3.33;;
757;SDS011;363;48.764;9.172;2024-03-22T17:13:22;4.23;;;3.33;;
757;SDS011;363;48.764;9.172;2024-03-22T17:15:48;3.45;;;2.72;;
757;SDS011;363;48.764;9.172;2024-03-22T17:18:14;3.90;;;3.50;;
757;SDS011;363;48.764;9.172;2024-03-22T17:20:39;6.30;;;5.70;;
757;SDS011;363;48.764;9.172;2024-03-22T17:23:07;8.05;;;4.22;;
757;SDS011;363;48.764;9.172;2024-03-22T17:25:34;6.30;;;4.13;;
757;SDS011;363;48.764;9.172;2024-03-22T17:27:59;14.57;;;13.18;;
757;SDS011;363;48.764;9.172;2024-03-22T17:30:27;11.57;;;9.57;;
757;SDS011;363;48.764;9.172;2024-03-22T17:32:54;7.40;;;6.13;;
757;SDS011;363;48.764;9.172;2024-03-22T17:35:20;10.70;;;7.37;;
757;SDS011;363;48.764;9.172;2024-03-22T17:37:45;6.93;;;3.63;;
757;SDS011;363;48.764;9.172;2024-03-22T17:40:11;3.70;;;3.40;;
757;SDS011;363;48.764;9.172;2024-03-22T17:42:39;5.05;;;3.90;;
757;SDS011;363;48.764;9.172;2024-03-22T17:45:05;5.63;;;3.13;;
757;SDS011;363;48.764;9.172;2024-03-22T17:47:30;5.10;;;4.10;;
757;SDS011;363;48.764;9.172;2024-03-22T17:49:56;4.47;;;3.83;;
757;SDS011;363;48.764;9.172;2024-03-22T17:52:24;5.57;;;3.90;;
757;SDS011;363;48.764;9.172;2024-03-22T17:54:51;5.35;;;3.85;;
757;SDS011;363;48.764;9.172;2024-03-22T17:57:17;4.45;;;3.97;;
757;SDS011;363;48.764;9.172;2024-03-22T17:59:43;5.73;;;3.87;;
757;SDS011;363;48.764;9.172;2024-03-22T18:02:08;6.63;;;4.83;;
757;SDS011;363;48.764;9.172;2024-03-22T18:04:34;5.43;;;4.22;;
757;SDS011;363;48.764;9.172;2024-03-22T18:07:01;4.25;;;3.75;;
757;SDS011;363;48.764;9.172;2024-03-22T18:09:26;3.50;;;3.20;;
757;SDS011;363;48.764;9.172;2024-03-22T18:11:52;6.43;;;4.33;;
757;SDS011;363;48.764;9.172;2024-03-22T18:14:18;4.43;;;4.07;;
757;SDS011;363;48.764;9.172;2024-03-22T18:16:44;4.77;;;4.37;;
757;SDS011;363;48.764;9.172;2024-03-22T18:19:10;5.32;;;4.20;;
757;SDS011;363;48.764;9.172;2024-03-22T18:21:35;5.37;;;3.63;;
757;SDS011;363;48.764;9.172;2024-03-22T18:24:05;4.57;;;4.18;;
757;SDS011;363;48.764;9.172;2024-03-22T18:26:31;6.45;;;4.00;;
757;SDS011;363;48.764;9.172;2024-03-22T18:28:57;6.50;;;4.13;;
757;SDS011;363;48.764;9.172;2024-03-22T18:31:22;3.70;;;3.40;;
757;SDS011;363;48.764;9.172;2024-03-22T18:33:48;4.80;;;4.10;;
757;SDS011;363;48.764;9.172;2024-03-22T18:36:13;5.73;;;4.37;;
757;SDS011;363;48.764;9.172;2024-03-22T18:38:39;5.17;;;4.67;;